sensor_id;sensor_type;location;lat;lon;timestamp;temperature;humidity
15666;DHT22;20725;51.196;3.510;2022-10-17T02:05:57;15.00;99.90
15666;DHT22;20725;51.196;3.510;2022-10-17T02:08:24;15.00;99.90
15666;DHT22;20725;51.196;3.510;2022-10-17T02:10:53;15.10;99.90
15666;DHT22;20725;51.196;3.510;2022-10-17T02:13:22;15.00;99.90
15666;DHT22;20725;51.196;3.510;2022-10-17T02:16:05;15.00;99.90
15666;DHT22;20725;51.196;3.510;2022-10-17T02:18:45;15.00;99.90
15666;DHT22;20725;51.196;3.510;2022-10-17T02:21:17;15.00;99.90
15666;DHT22;20725;51.196;3.510;2022-10-17T02:23:49;15.10;99.90
15666;DHT22;20725;51.196;3.510;2022-10-17T02:26:19;15.00;99.90
15666;DHT22;20725;51.196;3.510;2022-10-17T02:28:49;15.00;99.90
15666;DHT22;20725;51.196;3.510;2022-10-17T02:31:18;14.90;99.90
15666;DHT22;20725;51.196;3.510;2022-10-17T02:33:51;14.90;99.90
15666;DHT22;20725;51.196;3.510;2022-10-17T02:36:23;14.90;99.90
15666;DHT22;20725;51.196;3.510;2022-10-17T02:38:51;15.00;99.90
15666;DHT22;20725;51.196;3.510;2022-10-17T02:41:19;15.10;99.90
15666;DHT22;20725;51.196;3.510;2022-10-17T02:43:47;15.20;99.90
15666;DHT22;20725;51.196;3.510;2022-10-17T02:46:15;15.30;99.90
15666;DHT22;20725;51.196;3.510;2022-10-17T02:48:46;15.40;99.90
15666;DHT22;20725;51.196;3.510;2022-10-17T02:51:15;15.40;99.90
15666;DHT22;20725;51.196;3.510;2022-10-17T02:53:46;15.40;99.90
15666;DHT22;20725;51.196;3.510;2022-10-17T02:56:19;15.50;99.90
15666;DHT22;20725;51.196;3.510;2022-10-17T02:58:48;15.60;99.90
15666;DHT22;20725;51.196;3.510;2022-10-17T03:04:04;15.70;99.90
15666;DHT22;20725;51.196;3.510;2022-10-17T03:06:47;15.70;99.90
15666;DHT22;20725;51.196;3.510;2022-10-17T03:09:30;15.70;99.90
15666;DHT22;20725;51.196;3.510;2022-10-17T03:12:07;15.70;99.90
15666;DHT22;20725;51.196;3.510;2022-10-17T03:14:43;15.90;99.90
15666;DHT22;20725;51.196;3.510;2022-10-17T03:17:49;15.90;99.90
15666;DHT22;20725;51.196;3.510;2022-10-17T03:20:24;16.00;99.90
15666;DHT22;20725;51.196;3.510;2022-10-17T03:23:01;16.10;99.90
15666;DHT22;20725;51.196;3.510;2022-10-17T03:25:55;16.20;99.90
15666;DHT22;20725;51.196;3.510;2022-10-17T03:28:38;16.30;99.90
15666;DHT22;20725;51.196;3.510;2022-10-17T03:31:13;16.30;99.90
15666;DHT22;20725;51.196;3.510;2022-10-17T03:33:52;16.30;99.90
15666;DHT22;20725;51.196;3.510;2022-10-17T03:36:30;16.40;99.90
15666;DHT22;20725;51.196;3.510;2022-10-17T03:39:04;16.40;99.90
15666;DHT22;20725;51.196;3.510;2022-10-17T03:44:31;16.40;99.90
15666;DHT22;20725;51.196;3.510;2022-10-17T03:47:00;16.50;99.90
15666;DHT22;20725;51.196;3.510;2022-10-17T03:49:41;16.50;99.90
15666;DHT22;20725;51.196;3.510;2022-10-17T03:52:12;16.50;99.90
15666;DHT22;20725;51.196;3.510;2022-10-17T03:54:58;16.50;99.90
15666;DHT22;20725;51.196;3.510;2022-10-17T03:57:29;16.50;99.90
15666;DHT22;20725;51.196;3.510;2022-10-17T04:06:06;16.50;99.90
15666;DHT22;20725;51.196;3.510;2022-10-17T04:08:41;16.50;99.90
15666;DHT22;20725;51.196;3.510;2022-10-17T04:11:14;16.50;99.90
15666;DHT22;20725;51.196;3.510;2022-10-17T04:14:04;16.50;99.90
15666;DHT22;20725;51.196;3.510;2022-10-17T04:16:34;16.60;99.90
15666;DHT22;20725;51.196;3.510;2022-10-17T04:19:21;16.50;99.90
15666;DHT22;20725;51.196;3.510;2022-10-17T04:21:54;16.60;99.90
15666;DHT22;20725;51.196;3.510;2022-10-17T04:24:36;16.50;99.90
15666;DHT22;20725;51.196;3.510;2022-10-17T04:27:16;16.50;99.90
15666;DHT22;20725;51.196;3.510;2022-10-17T04:29:43;16.50;99.90
15666;DHT22;20725;51.196;3.510;2022-10-17T04:32:15;16.60;99.90
15666;DHT22;20725;51.196;3.510;2022-10-17T04:34:45;16.60;99.90
15666;DHT22;20725;51.196;3.510;2022-10-17T04:37:28;16.50;99.90
15666;DHT22;20725;51.196;3.510;2022-10-17T04:40:09;16.60;99.90
15666;DHT22;20725;51.196;3.510;2022-10-17T04:42:43;16.60;99.90
15666;DHT22;20725;51.196;3.510;2022-10-17T04:45:32;16.50;99.90
15666;DHT22;20725;51.196;3.510;2022-10-17T04:48:04;16.50;99.90
15666;DHT22;20725;51.196;3.510;2022-10-17T04:50:37;16.60;99.90
15666;DHT22;20725;51.196;3.510;2022-10-17T04:53:29;16.60;99.90
15666;DHT22;20725;51.196;3.510;2022-10-17T04:56:15;16.60;99.90
15666;DHT22;20725;51.196;3.510;2022-10-17T04:59:02;16.60;99.90
15666;DHT22;20725;51.196;3.510;2022-10-17T05:01:38;16.60;99.90
15666;DHT22;20725;51.196;3.510;2022-10-17T05:04:07;16.60;99.90
15666;DHT22;20725;51.196;3.510;2022-10-17T05:06:40;16.60;99.90
15666;DHT22;20725;51.196;3.510;2022-10-17T05:09:15;16.60;99.90
15666;DHT22;20725;51.196;3.510;2022-10-17T05:11:54;16.60;99.90
15666;DHT22;20725;51.196;3.510;2022-10-17T05:14:25;16.50;99.90
15666;DHT22;20725;51.196;3.510;2022-10-17T05:17:00;16.60;99.90
15666;DHT22;20725;51.196;3.510;2022-10-17T05:19:34;16.50;99.90
15666;DHT22;20725;51.196;3.510;2022-10-17T05:22:09;16.60;99.90
15666;DHT22;20725;51.196;3.510;2022-10-17T05:24:45;16.60;99.90
15666;DHT22;20725;51.196;3.510;2022-10-17T05:27:19;16.60;99.90
15666;DHT22;20725;51.196;3.510;2022-10-17T05:29:55;16.60;99.90
15666;DHT22;20725;51.196;3.510;2022-10-17T05:32:27;16.60;99.90
15666;DHT22;20725;51.196;3.510;2022-10-17T05:35:12;16.60;99.90
15666;DHT22;20725;51.196;3.510;2022-10-17T05:37:43;16.80;99.90
15666;DHT22;20725;51.196;3.510;2022-10-17T05:40:18;16.80;99.90
15666;DHT22;20725;51.196;3.510;2022-10-17T05:42:50;16.80;99.90
15666;DHT22;20725;51.196;3.510;2022-10-17T05:45:21;16.90;99.90
15666;DHT22;20725;51.196;3.510;2022-10-17T05:47:50;16.90;99.90
15666;DHT22;20725;51.196;3.510;2022-10-17T05:50:22;16.80;99.90
15666;DHT22;20725;51.196;3.510;2022-10-17T05:52:53;16.80;99.90
15666;DHT22;20725;51.196;3.510;2022-10-17T05:55:29;16.80;99.90
15666;DHT22;20725;51.196;3.510;2022-10-17T05:58:01;16.80;99.90
15666;DHT22;20725;51.196;3.510;2022-10-17T06:00:34;16.90;99.90
15666;DHT22;20725;51.196;3.510;2022-10-17T06:03:03;16.70;99.90
15666;DHT22;20725;51.196;3.510;2022-10-17T06:05:33;16.50;99.90
15666;DHT22;20725;51.196;3.510;2022-10-17T06:08:06;16.30;99.90
15666;DHT22;20725;51.196;3.510;2022-10-17T06:13:43;16.20;99.90
15666;DHT22;20725;51.196;3.510;2022-10-17T06:16:28;16.30;99.90
15666;DHT22;20725;51.196;3.510;2022-10-17T06:19:09;16.30;99.90
15666;DHT22;20725;51.196;3.510;2022-10-17T06:21:39;16.20;99.90
15666;DHT22;20725;51.196;3.510;2022-10-17T06:24:22;16.30;99.90
15666;DHT22;20725;51.196;3.510;2022-10-17T06:27:09;16.00;99.90
15666;DHT22;20725;51.196;3.510;2022-10-17T06:29:58;16.20;99.90
15666;DHT22;20725;51.196;3.510;2022-10-17T06:34:17;16.30;99.90
15666;DHT22;20725;51.196;3.510;2022-10-17T06:38:56;16.60;99.90
15666;DHT22;20725;51.196;3.510;2022-10-17T06:42:41;17.10;99.90
15666;DHT22;20725;51.196;3.510;2022-10-17T06:44:42;17.40;99.90
15666;DHT22;20725;51.196;3.510;2022-10-17T06:47:26;17.40;99.90
15666;DHT22;20725;51.196;3.510;2022-10-17T06:50:09;17.20;99.90
15666;DHT22;20725;51.196;3.510;2022-10-17T06:52:55;17.20;99.90
15666;DHT22;20725;51.196;3.510;2022-10-17T06:55:43;17.40;99.90
15666;DHT22;20725;51.196;3.510;2022-10-17T06:58:33;17.10;99.90
15666;DHT22;20725;51.196;3.510;2022-10-17T07:01:20;17.10;99.90
15666;DHT22;20725;51.196;3.510;2022-10-17T07:04:06;17.10;99.90
15666;DHT22;20725;51.196;3.510;2022-10-17T07:06:56;17.30;99.90
15666;DHT22;20725;51.196;3.510;2022-10-17T07:09:28;17.20;99.90
15666;DHT22;20725;51.196;3.510;2022-10-17T07:12:45;17.10;99.90
15666;DHT22;20725;51.196;3.510;2022-10-17T07:15:12;17.10;99.90
15666;DHT22;20725;51.196;3.510;2022-10-17T07:17:45;17.10;99.90
15666;DHT22;20725;51.196;3.510;2022-10-17T07:20:37;17.00;99.90
15666;DHT22;20725;51.196;3.510;2022-10-17T07:23:05;16.80;99.90
15666;DHT22;20725;51.196;3.510;2022-10-17T07:26:00;16.90;99.90
15666;DHT22;20725;51.196;3.510;2022-10-17T07:28:44;17.00;99.90
15666;DHT22;20725;51.196;3.510;2022-10-17T07:31:28;16.80;99.90
15666;DHT22;20725;51.196;3.510;2022-10-17T07:34:10;16.90;99.90
15666;DHT22;20725;51.196;3.510;2022-10-17T07:48:22;16.80;99.90
15666;DHT22;20725;51.196;3.510;2022-10-17T07:51:05;16.80;99.90
15666;DHT22;20725;51.196;3.510;2022-10-17T07:53:44;16.80;99.90
15666;DHT22;20725;51.196;3.510;2022-10-17T07:56:32;16.80;99.90
15666;DHT22;20725;51.196;3.510;2022-10-17T07:59:05;17.00;99.90
15666;DHT22;20725;51.196;3.510;2022-10-17T08:08:08;17.00;99.90
15666;DHT22;20725;51.196;3.510;2022-10-17T08:13:52;16.80;99.90
15666;DHT22;20725;51.196;3.510;2022-10-17T08:16:22;17.20;99.90
15666;DHT22;20725;51.196;3.510;2022-10-17T08:20:27;17.20;99.90
15666;DHT22;20725;51.196;3.510;2022-10-17T08:21:57;17.10;99.90
15666;DHT22;20725;51.196;3.510;2022-10-17T08:38:58;17.40;99.90
15666;DHT22;20725;51.196;3.510;2022-10-17T08:41:34;17.40;99.90
15666;DHT22;20725;51.196;3.510;2022-10-17T08:44:22;17.10;99.90
15666;DHT22;20725;51.196;3.510;2022-10-17T08:46:58;17.10;99.90
15666;DHT22;20725;51.196;3.510;2022-10-17T08:49:32;17.20;99.90
15666;DHT22;20725;51.196;3.510;2022-10-17T08:52:40;17.30;99.90
15666;DHT22;20725;51.196;3.510;2022-10-17T08:55:28;17.30;99.90
15666;DHT22;20725;51.196;3.510;2022-10-17T08:58:18;17.20;99.90
15666;DHT22;20725;51.196;3.510;2022-10-17T09:01:00;17.00;99.90
15666;DHT22;20725;51.196;3.510;2022-10-17T09:03:47;16.80;99.90
15666;DHT22;20725;51.196;3.510;2022-10-17T09:06:31;17.20;99.90
15666;DHT22;20725;51.196;3.510;2022-10-17T09:09:29;17.00;99.90
15666;DHT22;20725;51.196;3.510;2022-10-17T09:21:04;17.30;99.90
15666;DHT22;20725;51.196;3.510;2022-10-17T09:24:10;17.40;99.90
15666;DHT22;20725;51.196;3.510;2022-10-17T09:26:56;17.50;99.90
15666;DHT22;20725;51.196;3.510;2022-10-17T09:29:47;17.10;99.90
15666;DHT22;20725;51.196;3.510;2022-10-17T09:32:35;17.40;99.90
15666;DHT22;20725;51.196;3.510;2022-10-17T09:35:15;17.50;99.90
15666;DHT22;20725;51.196;3.510;2022-10-17T09:38:08;17.70;99.90
15666;DHT22;20725;51.196;3.510;2022-10-17T09:41:33;17.50;99.90
15666;DHT22;20725;51.196;3.510;2022-10-17T09:44:18;17.40;99.90
15666;DHT22;20725;51.196;3.510;2022-10-17T09:47:04;17.00;99.90
15666;DHT22;20725;51.196;3.510;2022-10-17T09:49:36;17.20;99.90
15666;DHT22;20725;51.196;3.510;2022-10-17T09:52:15;17.20;99.90
15666;DHT22;20725;51.196;3.510;2022-10-17T10:08:56;17.50;99.90
15666;DHT22;20725;51.196;3.510;2022-10-17T10:14:56;17.50;99.90
15666;DHT22;20725;51.196;3.510;2022-10-17T10:17:35;17.40;99.90
15666;DHT22;20725;51.196;3.510;2022-10-17T10:23:09;17.90;99.90
15666;DHT22;20725;51.196;3.510;2022-10-17T10:25:45;17.80;99.90
15666;DHT22;20725;51.196;3.510;2022-10-17T10:28:26;18.10;99.90
15666;DHT22;20725;51.196;3.510;2022-10-17T10:31:05;18.30;99.90
15666;DHT22;20725;51.196;3.510;2022-10-17T10:33:54;18.50;99.90
15666;DHT22;20725;51.196;3.510;2022-10-17T10:36:54;18.30;99.90
15666;DHT22;20725;51.196;3.510;2022-10-17T10:39:43;18.50;99.90
15666;DHT22;20725;51.196;3.510;2022-10-17T10:51:51;18.40;99.90
15666;DHT22;20725;51.196;3.510;2022-10-17T10:54:10;18.70;99.90
15666;DHT22;20725;51.196;3.510;2022-10-17T10:56:57;18.80;99.90
15666;DHT22;20725;51.196;3.510;2022-10-17T11:02:47;18.80;99.90
15666;DHT22;20725;51.196;3.510;2022-10-17T11:05:23;18.50;99.90
15666;DHT22;20725;51.196;3.510;2022-10-17T11:08:14;18.30;99.90
15666;DHT22;20725;51.196;3.510;2022-10-17T11:13:59;18.60;99.90
15666;DHT22;20725;51.196;3.510;2022-10-17T11:17:00;18.60;99.90
15666;DHT22;20725;51.196;3.510;2022-10-17T11:20:00;19.00;99.90
15666;DHT22;20725;51.196;3.510;2022-10-17T11:31:38;19.50;99.90
15666;DHT22;20725;51.196;3.510;2022-10-17T11:37:57;19.70;99.90
15666;DHT22;20725;51.196;3.510;2022-10-17T11:41:30;19.30;99.90
15666;DHT22;20725;51.196;3.510;2022-10-17T11:43:47;19.20;99.90
15666;DHT22;20725;51.196;3.510;2022-10-17T12:53:11;19.70;99.90
15666;DHT22;20725;51.196;3.510;2022-10-17T12:55:59;19.80;99.90
15666;DHT22;20725;51.196;3.510;2022-10-17T13:01:52;20.00;99.90
15666;DHT22;20725;51.196;3.510;2022-10-17T13:04:33;20.20;99.90
15666;DHT22;20725;51.196;3.510;2022-10-17T13:09:53;20.20;99.90
15666;DHT22;20725;51.196;3.510;2022-10-17T13:13:29;20.00;99.90
15666;DHT22;20725;51.196;3.510;2022-10-17T13:15:29;20.10;99.90
15666;DHT22;20725;51.196;3.510;2022-10-17T13:27:35;21.50;99.90
15666;DHT22;20725;51.196;3.510;2022-10-17T13:30:29;22.60;99.90
15666;DHT22;20725;51.196;3.510;2022-10-17T13:36:07;23.20;99.90
15666;DHT22;20725;51.196;3.510;2022-10-17T13:38:43;23.40;99.90
15666;DHT22;20725;51.196;3.510;2022-10-17T13:41:28;23.20;99.30
15666;DHT22;20725;51.196;3.510;2022-10-17T13:44:09;23.50;98.30
15666;DHT22;20725;51.196;3.510;2022-10-17T13:46:51;22.70;99.60
15666;DHT22;20725;51.196;3.510;2022-10-17T13:49:21;22.30;99.30
15666;DHT22;20725;51.196;3.510;2022-10-17T13:51:56;22.40;99.90
15666;DHT22;20725;51.196;3.510;2022-10-17T13:54:37;22.00;99.90
15666;DHT22;20725;51.196;3.510;2022-10-17T13:57:15;21.70;99.90
15666;DHT22;20725;51.196;3.510;2022-10-17T13:59:51;21.50;99.90
15666;DHT22;20725;51.196;3.510;2022-10-17T14:02:23;21.40;99.90
15666;DHT22;20725;51.196;3.510;2022-10-17T14:10:42;22.80;99.90
15666;DHT22;20725;51.196;3.510;2022-10-17T14:13:21;23.90;99.00
15666;DHT22;20725;51.196;3.510;2022-10-17T14:16:18;23.70;96.90
15666;DHT22;20725;51.196;3.510;2022-10-17T14:18:48;23.50;98.50
15666;DHT22;20725;51.196;3.510;2022-10-17T14:21:34;23.70;99.90
15666;DHT22;20725;51.196;3.510;2022-10-17T14:24:13;23.40;98.80
15666;DHT22;20725;51.196;3.510;2022-10-17T14:26:45;23.00;99.50
15666;DHT22;20725;51.196;3.510;2022-10-17T14:32:05;23.20;96.60
15666;DHT22;20725;51.196;3.510;2022-10-17T14:34:45;22.70;98.40
15666;DHT22;20725;51.196;3.510;2022-10-17T14:37:40;22.40;99.00
15666;DHT22;20725;51.196;3.510;2022-10-17T14:40:15;21.90;97.90
15666;DHT22;20725;51.196;3.510;2022-10-17T14:42:55;21.80;99.90
15666;DHT22;20725;51.196;3.510;2022-10-17T14:45:25;21.70;99.90
15666;DHT22;20725;51.196;3.510;2022-10-17T14:47:59;21.20;99.90
15666;DHT22;20725;51.196;3.510;2022-10-17T14:50:41;20.90;99.90
15666;DHT22;20725;51.196;3.510;2022-10-17T14:54:15;20.40;99.90
15666;DHT22;20725;51.196;3.510;2022-10-17T14:56:27;20.10;99.90
15666;DHT22;20725;51.196;3.510;2022-10-17T14:58:57;19.60;99.90
15666;DHT22;20725;51.196;3.510;2022-10-17T15:01:38;19.60;99.90
15666;DHT22;20725;51.196;3.510;2022-10-17T15:04:24;19.50;99.90
15666;DHT22;20725;51.196;3.510;2022-10-17T15:06:54;19.50;99.90
15666;DHT22;20725;51.196;3.510;2022-10-17T15:09:36;19.40;99.90
15666;DHT22;20725;51.196;3.510;2022-10-17T15:12:16;19.30;99.90
15666;DHT22;20725;51.196;3.510;2022-10-17T15:15:12;19.30;99.90
15666;DHT22;20725;51.196;3.510;2022-10-17T15:17:54;19.00;99.90
15666;DHT22;20725;51.196;3.510;2022-10-17T15:20:42;19.10;99.90
15666;DHT22;20725;51.196;3.510;2022-10-17T15:23:54;18.90;99.90
15666;DHT22;20725;51.196;3.510;2022-10-17T15:26:17;18.90;99.90
15666;DHT22;20725;51.196;3.510;2022-10-17T15:28:56;18.80;99.90
15666;DHT22;20725;51.196;3.510;2022-10-17T15:31:31;18.80;99.90
15666;DHT22;20725;51.196;3.510;2022-10-17T15:34:02;18.80;99.90
15666;DHT22;20725;51.196;3.510;2022-10-17T15:39:18;18.70;99.90
15666;DHT22;20725;51.196;3.510;2022-10-17T15:41:56;18.60;99.90
15666;DHT22;20725;51.196;3.510;2022-10-17T15:45:32;18.60;99.90
15666;DHT22;20725;51.196;3.510;2022-10-17T15:47:28;18.50;99.90
15666;DHT22;20725;51.196;3.510;2022-10-17T15:50:00;18.60;99.90
15666;DHT22;20725;51.196;3.510;2022-10-17T15:52:38;18.50;99.90
15666;DHT22;20725;51.196;3.510;2022-10-17T15:55:25;18.50;99.90
15666;DHT22;20725;51.196;3.510;2022-10-17T15:58:02;18.50;99.90
15666;DHT22;20725;51.196;3.510;2022-10-17T16:00:42;18.40;99.90
15666;DHT22;20725;51.196;3.510;2022-10-17T16:03:19;18.30;99.90
15666;DHT22;20725;51.196;3.510;2022-10-17T16:05:51;18.30;99.90
15666;DHT22;20725;51.196;3.510;2022-10-17T16:08:19;18.20;99.90
15666;DHT22;20725;51.196;3.510;2022-10-17T16:10:48;18.20;99.90
15666;DHT22;20725;51.196;3.510;2022-10-17T16:13:38;18.10;99.90
15666;DHT22;20725;51.196;3.510;2022-10-17T16:16:11;18.10;99.90
15666;DHT22;20725;51.196;3.510;2022-10-17T16:18:52;18.00;99.90
15666;DHT22;20725;51.196;3.510;2022-10-17T16:21:39;17.90;99.90
15666;DHT22;20725;51.196;3.510;2022-10-17T16:24:16;17.80;99.90
15666;DHT22;20725;51.196;3.510;2022-10-17T16:26:51;17.80;99.90
15666;DHT22;20725;51.196;3.510;2022-10-17T16:29:24;17.60;99.90
15666;DHT22;20725;51.196;3.510;2022-10-17T16:34:36;17.50;99.90
15666;DHT22;20725;51.196;3.510;2022-10-17T16:37:07;17.40;99.90
15666;DHT22;20725;51.196;3.510;2022-10-17T16:39:47;17.40;99.90
15666;DHT22;20725;51.196;3.510;2022-10-17T16:42:30;17.30;99.90
15666;DHT22;20725;51.196;3.510;2022-10-17T16:44:59;17.30;99.90
15666;DHT22;20725;51.196;3.510;2022-10-17T16:47:33;17.30;99.90
15666;DHT22;20725;51.196;3.510;2022-10-17T16:50:15;17.20;99.90
15666;DHT22;20725;51.196;3.510;2022-10-17T16:52:45;17.20;99.90
15666;DHT22;20725;51.196;3.510;2022-10-17T16:55:21;17.00;99.90
15666;DHT22;20725;51.196;3.510;2022-10-17T16:57:54;17.00;99.90
15666;DHT22;20725;51.196;3.510;2022-10-17T17:00:24;16.90;99.90
15666;DHT22;20725;51.196;3.510;2022-10-17T17:02:52;16.80;99.90
15666;DHT22;20725;51.196;3.510;2022-10-17T17:05:19;16.80;99.90
15666;DHT22;20725;51.196;3.510;2022-10-17T17:07:46;16.90;99.90
15666;DHT22;20725;51.196;3.510;2022-10-17T17:10:13;16.80;99.90
15666;DHT22;20725;51.196;3.510;2022-10-17T17:12:40;16.80;99.90
15666;DHT22;20725;51.196;3.510;2022-10-17T17:15:09;16.70;99.90
15666;DHT22;20725;51.196;3.510;2022-10-17T17:17:35;16.80;99.90
15666;DHT22;20725;51.196;3.510;2022-10-17T17:20:02;16.70;99.90
15666;DHT22;20725;51.196;3.510;2022-10-17T17:22:32;16.60;99.90
15666;DHT22;20725;51.196;3.510;2022-10-17T17:24:59;16.60;99.90
15666;DHT22;20725;51.196;3.510;2022-10-17T17:27:26;16.50;99.90
15666;DHT22;20725;51.196;3.510;2022-10-17T17:29:54;16.50;99.90
15666;DHT22;20725;51.196;3.510;2022-10-17T17:32:22;16.50;99.90
15666;DHT22;20725;51.196;3.510;2022-10-17T17:34:50;16.40;99.90
15666;DHT22;20725;51.196;3.510;2022-10-17T17:37:17;16.40;99.90
15666;DHT22;20725;51.196;3.510;2022-10-17T17:39:43;16.40;99.90
15666;DHT22;20725;51.196;3.510;2022-10-17T17:42:10;16.50;99.90
15666;DHT22;20725;51.196;3.510;2022-10-17T17:44:37;16.40;99.90
15666;DHT22;20725;51.196;3.510;2022-10-17T17:47:04;16.40;99.90
15666;DHT22;20725;51.196;3.510;2022-10-17T17:49:32;16.40;99.90
15666;DHT22;20725;51.196;3.510;2022-10-17T17:51:59;16.40;99.90
15666;DHT22;20725;51.196;3.510;2022-10-17T17:54:26;16.40;99.90
15666;DHT22;20725;51.196;3.510;2022-10-17T17:56:53;16.50;99.90
15666;DHT22;20725;51.196;3.510;2022-10-17T17:59:20;16.40;99.90
15666;DHT22;20725;51.196;3.510;2022-10-17T18:01:47;16.40;99.90
15666;DHT22;20725;51.196;3.510;2022-10-17T18:04:14;16.50;99.90
15666;DHT22;20725;51.196;3.510;2022-10-17T18:06:42;16.50;99.90
15666;DHT22;20725;51.196;3.510;2022-10-17T18:09:09;16.40;99.90
15666;DHT22;20725;51.196;3.510;2022-10-17T18:11:36;16.50;99.90
15666;DHT22;20725;51.196;3.510;2022-10-17T18:14:04;16.40;99.90
15666;DHT22;20725;51.196;3.510;2022-10-17T18:16:32;16.40;99.90
15666;DHT22;20725;51.196;3.510;2022-10-17T18:18:59;16.40;99.90
15666;DHT22;20725;51.196;3.510;2022-10-17T18:21:31;16.40;99.90
15666;DHT22;20725;51.196;3.510;2022-10-17T18:23:59;16.30;99.90
15666;DHT22;20725;51.196;3.510;2022-10-17T18:26:26;16.30;99.90
15666;DHT22;20725;51.196;3.510;2022-10-17T18:28:53;16.30;99.90
15666;DHT22;20725;51.196;3.510;2022-10-17T18:31:21;16.30;99.90
15666;DHT22;20725;51.196;3.510;2022-10-17T18:33:53;16.20;99.90
15666;DHT22;20725;51.196;3.510;2022-10-17T18:36:20;16.20;99.90
15666;DHT22;20725;51.196;3.510;2022-10-17T18:38:47;16.20;99.90
15666;DHT22;20725;51.196;3.510;2022-10-17T18:41:16;16.10;99.90
15666;DHT22;20725;51.196;3.510;2022-10-17T18:43:44;16.10;99.90
15666;DHT22;20725;51.196;3.510;2022-10-17T18:46:11;16.10;99.90
15666;DHT22;20725;51.196;3.510;2022-10-17T18:48:39;16.00;99.90
15666;DHT22;20725;51.196;3.510;2022-10-17T18:51:06;16.00;99.90
15666;DHT22;20725;51.196;3.510;2022-10-17T18:53:33;16.00;99.90
15666;DHT22;20725;51.196;3.510;2022-10-17T18:56:00;15.90;99.90
15666;DHT22;20725;51.196;3.510;2022-10-17T18:58:29;16.00;99.90
15666;DHT22;20725;51.196;3.510;2022-10-17T19:01:00;15.90;99.90
15666;DHT22;20725;51.196;3.510;2022-10-17T19:03:27;15.90;99.90
15666;DHT22;20725;51.196;3.510;2022-10-17T19:05:53;15.90;99.90
15666;DHT22;20725;51.196;3.510;2022-10-17T19:08:20;15.80;99.90
15666;DHT22;20725;51.196;3.510;2022-10-17T19:10:47;15.80;99.90
15666;DHT22;20725;51.196;3.510;2022-10-17T19:13:14;15.70;99.90
15666;DHT22;20725;51.196;3.510;2022-10-17T19:15:42;15.70;99.90
15666;DHT22;20725;51.196;3.510;2022-10-17T19:18:09;15.70;99.90
15666;DHT22;20725;51.196;3.510;2022-10-17T19:20:36;15.60;99.90
15666;DHT22;20725;51.196;3.510;2022-10-17T19:23:03;15.60;99.90
15666;DHT22;20725;51.196;3.510;2022-10-17T19:25:32;15.50;99.90
15666;DHT22;20725;51.196;3.510;2022-10-17T19:27:59;15.50;99.90
15666;DHT22;20725;51.196;3.510;2022-10-17T19:30:25;15.50;99.90
15666;DHT22;20725;51.196;3.510;2022-10-17T19:32:54;15.40;99.90
15666;DHT22;20725;51.196;3.510;2022-10-17T19:35:21;15.40;99.90
15666;DHT22;20725;51.196;3.510;2022-10-17T19:37:48;15.40;99.90
15666;DHT22;20725;51.196;3.510;2022-10-17T19:40:15;15.40;99.90
15666;DHT22;20725;51.196;3.510;2022-10-17T19:42:42;15.40;99.90
15666;DHT22;20725;51.196;3.510;2022-10-17T19:45:09;15.40;99.90
15666;DHT22;20725;51.196;3.510;2022-10-17T19:47:36;15.40;99.90
15666;DHT22;20725;51.196;3.510;2022-10-17T19:50:06;15.40;99.90
15666;DHT22;20725;51.196;3.510;2022-10-17T19:52:33;15.40;99.90
15666;DHT22;20725;51.196;3.510;2022-10-17T19:55:00;15.30;99.90
15666;DHT22;20725;51.196;3.510;2022-10-17T19:57:27;15.30;99.90
15666;DHT22;20725;51.196;3.510;2022-10-17T19:59:54;15.20;99.90
15666;DHT22;20725;51.196;3.510;2022-10-17T20:02:22;15.20;99.90
15666;DHT22;20725;51.196;3.510;2022-10-17T20:04:49;15.20;99.90
15666;DHT22;20725;51.196;3.510;2022-10-17T20:07:17;15.10;99.90
15666;DHT22;20725;51.196;3.510;2022-10-17T20:09:44;15.20;99.90
15666;DHT22;20725;51.196;3.510;2022-10-17T20:12:11;15.20;99.90
15666;DHT22;20725;51.196;3.510;2022-10-17T20:14:38;15.20;99.90
15666;DHT22;20725;51.196;3.510;2022-10-17T20:17:05;15.20;99.90
15666;DHT22;20725;51.196;3.510;2022-10-17T20:19:32;15.20;99.90
15666;DHT22;20725;51.196;3.510;2022-10-17T20:21:59;15.20;99.90
15666;DHT22;20725;51.196;3.510;2022-10-17T20:24:28;15.20;99.90
15666;DHT22;20725;51.196;3.510;2022-10-17T20:26:55;15.20;99.90
15666;DHT22;20725;51.196;3.510;2022-10-17T20:29:22;15.30;99.90
15666;DHT22;20725;51.196;3.510;2022-10-17T20:31:49;15.30;99.90
15666;DHT22;20725;51.196;3.510;2022-10-17T20:34:22;15.30;99.90
15666;DHT22;20725;51.196;3.510;2022-10-17T20:37:00;15.30;99.90
15666;DHT22;20725;51.196;3.510;2022-10-17T20:42:07;15.20;99.90
15666;DHT22;20725;51.196;3.510;2022-10-17T20:44:35;15.20;99.90
15666;DHT22;20725;51.196;3.510;2022-10-17T20:47:05;15.20;99.90
15666;DHT22;20725;51.196;3.510;2022-10-17T20:52:43;15.10;99.90
15666;DHT22;20725;51.196;3.510;2022-10-17T20:55:27;15.10;99.90
15666;DHT22;20725;51.196;3.510;2022-10-17T21:07:18;14.90;99.90
15666;DHT22;20725;51.196;3.510;2022-10-17T21:09:46;15.00;99.90
15666;DHT22;20725;51.196;3.510;2022-10-17T21:12:14;15.00;99.90
15666;DHT22;20725;51.196;3.510;2022-10-17T21:14:40;14.90;99.90
15666;DHT22;20725;51.196;3.510;2022-10-17T21:17:08;14.90;99.90
15666;DHT22;20725;51.196;3.510;2022-10-17T21:19:35;14.90;99.90
15666;DHT22;20725;51.196;3.510;2022-10-17T21:22:02;14.90;99.90
15666;DHT22;20725;51.196;3.510;2022-10-17T21:24:30;14.90;99.90
15666;DHT22;20725;51.196;3.510;2022-10-17T21:29:59;14.90;99.90
15666;DHT22;20725;51.196;3.510;2022-10-17T21:32:26;14.90;99.90
15666;DHT22;20725;51.196;3.510;2022-10-17T21:34:53;14.90;99.90
15666;DHT22;20725;51.196;3.510;2022-10-17T21:37:34;14.90;99.90
15666;DHT22;20725;51.196;3.510;2022-10-17T21:42:55;14.90;99.90
15666;DHT22;20725;51.196;3.510;2022-10-17T21:45:23;14.90;99.90
15666;DHT22;20725;51.196;3.510;2022-10-17T21:47:50;14.90;99.90
15666;DHT22;20725;51.196;3.510;2022-10-17T21:50:17;14.90;99.90
15666;DHT22;20725;51.196;3.510;2022-10-17T21:52:44;14.80;99.90
15666;DHT22;20725;51.196;3.510;2022-10-17T21:55:11;14.80;99.90
15666;DHT22;20725;51.196;3.510;2022-10-17T21:57:37;14.90;99.90
15666;DHT22;20725;51.196;3.510;2022-10-17T22:00:07;14.90;99.90
15666;DHT22;20725;51.196;3.510;2022-10-17T22:02:36;14.80;99.90
15666;DHT22;20725;51.196;3.510;2022-10-17T22:05:06;14.80;99.90
15666;DHT22;20725;51.196;3.510;2022-10-17T22:08:12;14.70;99.90
15666;DHT22;20725;51.196;3.510;2022-10-17T22:10:22;14.80;99.90
15666;DHT22;20725;51.196;3.510;2022-10-17T22:12:49;14.80;99.90
15666;DHT22;20725;51.196;3.510;2022-10-17T22:15:18;14.80;99.90
15666;DHT22;20725;51.196;3.510;2022-10-17T22:17:45;14.80;99.90
15666;DHT22;20725;51.196;3.510;2022-10-17T22:20:18;14.90;99.90